createdAt,value
2022-08-10T00:01:51.257Z,2.57
2022-08-10T00:04:21.014Z,2.40
2022-08-10T00:06:49.074Z,2.53
2022-08-10T00:09:18.288Z,2.60
2022-08-10T00:11:46.189Z,2.77
2022-08-10T00:14:14.107Z,2.70
2022-08-10T00:16:42.113Z,2.60
2022-08-10T00:19:09.978Z,2.93
2022-08-10T00:21:37.859Z,2.60
2022-08-10T00:24:06.218Z,2.57
2022-08-10T00:27:52.389Z,2.57
2022-08-10T00:29:24.384Z,2.63
2022-08-10T00:31:58.375Z,2.70
2022-08-10T00:34:27.319Z,2.87
2022-08-10T00:36:55.283Z,2.80
2022-08-10T00:39:23.186Z,2.60
2022-08-10T00:42:06.424Z,2.60
2022-08-10T00:44:36.896Z,2.80
2022-08-10T00:47:05.376Z,2.57
2022-08-10T00:49:33.387Z,2.50
2022-08-10T00:52:01.834Z,3.00
2022-08-10T00:54:30.456Z,2.70
2022-08-10T00:57:16.737Z,3.10
2022-08-10T00:59:58.688Z,3.00
2022-08-10T01:02:29.136Z,3.00
2022-08-10T01:04:59.703Z,3.00
2022-08-10T01:07:43.281Z,2.77
2022-08-10T01:10:24.270Z,2.60
2022-08-10T01:13:01.932Z,3.10
2022-08-10T01:15:32.194Z,2.70
2022-08-10T01:18:05.913Z,2.90
2022-08-10T01:20:39.795Z,2.87
2022-08-10T01:23:39.477Z,3.00
2022-08-10T01:26:32.030Z,3.10
2022-08-10T01:29:30.792Z,3.07
2022-08-10T01:32:04.316Z,2.87
2022-08-10T01:34:42.625Z,2.67
2022-08-10T01:37:18.190Z,2.63
2022-08-10T01:39:49.858Z,3.23
2022-08-10T01:42:21.288Z,2.53
2022-08-10T01:44:54.404Z,2.80
2022-08-10T01:47:46.453Z,2.63
2022-08-10T01:50:22.114Z,2.77
2022-08-10T01:52:52.562Z,2.90
2022-08-10T01:55:22.080Z,3.27
2022-08-10T01:57:52.568Z,2.60
2022-08-10T02:00:22.394Z,3.07
2022-08-10T02:02:53.269Z,3.30
2022-08-10T02:05:24.498Z,3.07
2022-08-10T02:07:53.607Z,2.83
2022-08-10T02:10:25.138Z,2.87
2022-08-10T02:12:56.504Z,2.83
2022-08-10T02:15:33.586Z,2.60
2022-08-10T02:18:06.218Z,3.03
2022-08-10T02:20:37.597Z,3.00
2022-08-10T02:23:09.706Z,3.00
2022-08-10T02:25:41.951Z,2.70
2022-08-10T02:28:30.260Z,3.37
2022-08-10T02:31:06.393Z,2.97
2022-08-10T02:33:38.134Z,3.10
2022-08-10T02:36:08.605Z,3.40
2022-08-10T02:38:58.597Z,3.20
2022-08-10T02:45:03.125Z,2.70
2022-08-10T02:45:20.715Z,3.00
2022-08-10T02:47:22.664Z,2.90
2022-08-10T02:49:56.759Z,2.80
2022-08-10T02:52:31.634Z,2.77
2022-08-10T02:55:06.077Z,2.80
2022-08-10T02:58:15.277Z,3.03
2022-08-10T03:00:43.448Z,3.10
2022-08-10T03:03:20.237Z,3.10
2022-08-10T03:05:50.940Z,3.10
2022-08-10T03:08:22.494Z,3.00
2022-08-10T03:10:52.389Z,3.00
2022-08-10T03:13:21.609Z,3.30
2022-08-10T03:15:52.581Z,2.67
2022-08-10T03:18:24.600Z,2.60
2022-08-10T03:20:54.335Z,2.90
2022-08-10T03:23:25.101Z,2.73
2022-08-10T03:25:56.846Z,2.70
2022-08-10T03:28:26.828Z,3.40
2022-08-10T03:30:55.648Z,3.20
2022-08-10T03:33:28.131Z,3.10
2022-08-10T03:36:42.975Z,2.83
2022-08-10T03:38:46.097Z,3.00
2022-08-10T03:41:16.655Z,2.70
2022-08-10T03:43:47.756Z,3.00
2022-08-10T03:46:19.198Z,3.00
2022-08-10T03:48:52.655Z,2.80
2022-08-10T03:51:22.737Z,3.20
2022-08-10T03:54:05.966Z,3.30
2022-08-10T03:56:36.980Z,2.90
2022-08-10T03:59:06.403Z,3.20
2022-08-10T04:02:45.595Z,3.57
2022-08-10T04:04:25.386Z,3.10
2022-08-10T04:06:55.694Z,2.83
2022-08-10T04:09:25.027Z,3.47
2022-08-10T04:12:11.492Z,3.20
2022-08-10T04:14:49.269Z,3.40
2022-08-10T04:18:03.657Z,3.37
2022-08-10T04:20:15.330Z,3.10
2022-08-10T04:22:44.816Z,3.00
2022-08-10T04:25:14.866Z,3.10
2022-08-10T04:27:43.130Z,3.10
2022-08-10T04:30:11.967Z,3.00
2022-08-10T04:32:41.430Z,3.30
2022-08-10T04:35:11.794Z,3.20
2022-08-10T04:37:47.215Z,3.07
2022-08-10T04:40:29.177Z,3.40
2022-08-10T04:43:10.478Z,3.00
2022-08-10T04:45:48.579Z,3.10
2022-08-10T04:48:43.116Z,3.30
2022-08-10T04:51:16.837Z,3.00
2022-08-10T04:54:04.706Z,3.20
2022-08-10T04:56:36.635Z,3.40
2022-08-10T04:59:06.119Z,3.50
2022-08-10T05:02:27.012Z,3.00
2022-08-10T05:04:36.151Z,3.30
2022-08-10T05:07:09.894Z,3.33
2022-08-10T05:10:02.067Z,3.00
2022-08-10T05:12:26.450Z,3.13
2022-08-10T05:14:54.721Z,3.43
2022-08-10T05:17:23.383Z,3.40
2022-08-10T05:20:04.246Z,3.30
2022-08-10T05:22:37.452Z,3.50
2022-08-10T05:25:06.778Z,3.27
2022-08-10T05:27:34.899Z,2.90
2022-08-10T05:30:03.669Z,3.27
2022-08-10T05:32:32.454Z,3.50
2022-08-10T05:35:20.446Z,3.40
2022-08-10T05:38:11.880Z,3.37
2022-08-10T05:40:42.433Z,3.30
2022-08-10T05:43:11.188Z,3.57
2022-08-10T05:46:16.616Z,3.20
2022-08-10T05:48:41.609Z,3.30
2022-08-10T05:51:19.653Z,3.10
2022-08-10T05:54:01.984Z,3.43
2022-08-10T05:56:53.405Z,3.00
2022-08-10T06:00:10.925Z,3.50
2022-08-10T06:02:31.617Z,3.10
2022-08-10T06:05:01.655Z,3.30
2022-08-10T06:07:31.264Z,3.30
2022-08-10T06:10:02.014Z,3.93
2022-08-10T06:12:35.149Z,3.30
2022-08-10T06:15:21.340Z,3.33
2022-08-10T06:18:01.564Z,3.03
2022-08-10T06:20:35.776Z,3.03
2022-08-10T06:23:05.635Z,3.63
2022-08-10T06:26:09.589Z,3.20
2022-08-10T06:28:24.447Z,3.33
2022-08-10T06:30:54.782Z,3.20
2022-08-10T06:33:24.427Z,3.00
2022-08-10T06:35:56.105Z,3.10
2022-08-10T06:38:27.670Z,3.10
2022-08-10T06:40:59.434Z,3.23
2022-08-10T06:43:29.175Z,3.00
2022-08-10T06:46:06.906Z,2.80
2022-08-10T06:48:42.518Z,3.30
2022-08-10T06:51:18.716Z,3.23
2022-08-10T06:53:52.792Z,3.27
2022-08-10T06:56:36.727Z,2.63
2022-08-10T06:59:14.548Z,3.20
2022-08-10T07:01:54.040Z,3.70
2022-08-10T07:04:32.850Z,3.30
2022-08-10T07:07:05.208Z,3.30
2022-08-10T07:09:36.029Z,3.00
2022-08-10T07:12:09.195Z,3.20
2022-08-10T07:14:43.360Z,3.13
2022-08-10T07:17:15.781Z,2.67
2022-08-10T07:19:49.545Z,3.97
2022-08-10T07:23:08.239Z,4.00
2022-08-10T07:25:11.864Z,3.93
2022-08-10T07:28:00.586Z,3.40
2022-08-10T07:30:31.459Z,3.10
2022-08-10T07:33:01.256Z,2.83
2022-08-10T07:35:43.030Z,3.20
2022-08-10T07:38:17.914Z,3.30
2022-08-10T07:40:47.130Z,3.10
2022-08-10T07:43:17.951Z,3.00
2022-08-10T07:45:47.163Z,3.03
2022-08-10T07:48:20.083Z,2.80
2022-08-10T07:50:48.907Z,3.00
2022-08-10T07:53:22.823Z,2.60
2022-08-10T07:56:02.201Z,2.67
2022-08-10T07:58:40.816Z,2.93
2022-08-10T08:01:16.809Z,3.10
2022-08-10T08:04:04.923Z,2.60
2022-08-10T08:06:38.245Z,2.53
2022-08-10T08:09:07.155Z,2.60
2022-08-10T08:11:36.563Z,2.87
2022-08-10T08:14:08.611Z,2.77
2022-08-10T08:16:38.603Z,4.93
2022-08-10T08:19:27.705Z,2.60
2022-08-10T08:24:08.085Z,2.47
2022-08-10T08:24:49.200Z,2.80
2022-08-10T08:27:22.080Z,2.73
2022-08-10T08:29:53.168Z,2.60
2022-08-10T08:32:23.985Z,2.90
2022-08-10T08:34:55.538Z,6.87
2022-08-10T08:38:30.289Z,2.47
2022-08-10T08:40:17.110Z,2.63
2022-08-10T08:42:56.161Z,2.57
2022-08-10T08:45:32.209Z,2.83
2022-08-10T08:48:16.491Z,2.83
2022-08-10T08:50:57.925Z,2.60
2022-08-10T08:54:01.613Z,2.93
2022-08-10T08:56:42.687Z,2.43
2022-08-10T08:59:31.982Z,2.50
2022-08-10T09:02:14.309Z,2.37
2022-08-10T09:04:57.251Z,2.47
2022-08-10T09:08:07.007Z,2.37
2022-08-10T09:10:45.642Z,2.40
2022-08-10T09:13:26.557Z,2.40
2022-08-10T09:16:16.521Z,4.83
2022-08-10T09:18:53.467Z,2.73
2022-08-10T09:21:28.993Z,2.47
2022-08-10T09:24:06.333Z,2.63
2022-08-10T09:26:43.891Z,2.58
2022-08-10T09:29:18.383Z,2.45
2022-08-10T09:32:55.014Z,2.50
2022-08-10T09:36:20.388Z,2.28
2022-08-10T09:38:01.087Z,2.25
2022-08-10T09:40:57.762Z,2.45
2022-08-10T09:43:44.894Z,2.30
2022-08-10T09:46:27.326Z,2.70
2022-08-10T09:49:05.081Z,2.42
2022-08-10T09:51:46.770Z,2.30
2022-08-10T09:54:23.705Z,1.90
2022-08-10T09:57:45.071Z,2.03
2022-08-10T10:00:08.954Z,1.67
2022-08-10T10:02:47.061Z,1.63
2022-08-10T10:05:34.460Z,2.20
2022-08-10T10:08:11.791Z,2.08
2022-08-10T10:10:47.659Z,1.70
2022-08-10T10:13:50.069Z,1.63
2022-08-10T10:16:26.985Z,1.90
2022-08-10T10:19:05.695Z,2.00
2022-08-10T10:21:55.766Z,2.90
2022-08-10T10:24:36.924Z,1.70
2022-08-10T10:27:20.067Z,1.70
2022-08-10T10:30:05.517Z,3.50
2022-08-10T10:32:46.451Z,1.60
2022-08-10T10:35:24.560Z,1.60
2022-08-10T10:38:01.407Z,1.88
2022-08-10T10:40:41.102Z,1.52
2022-08-10T10:43:21.565Z,1.40
2022-08-10T10:46:01.822Z,1.75
2022-08-10T10:48:39.661Z,1.52
2022-08-10T10:51:13.622Z,1.70
2022-08-10T10:53:48.644Z,2.63
2022-08-10T10:56:30.578Z,2.15
2022-08-10T10:59:53.975Z,1.67
2022-08-10T11:02:07.593Z,1.85
2022-08-10T11:04:41.693Z,1.60
2022-08-10T11:07:21.986Z,2.03
2022-08-10T11:10:05.210Z,1.70
2022-08-10T11:12:51.144Z,1.60
2022-08-10T11:15:28.031Z,1.38
2022-08-10T11:18:00.329Z,1.60
2022-08-10T11:20:38.103Z,1.60
2022-08-10T11:23:20.260Z,1.80
2022-08-10T11:25:58.798Z,1.55
2022-08-10T11:28:38.153Z,1.60
2022-08-10T11:31:15.066Z,1.60
2022-08-10T11:34:11.721Z,1.63
2022-08-10T11:36:45.112Z,1.55
2022-08-10T11:39:19.269Z,1.55
2022-08-10T11:42:08.839Z,5.47
2022-08-10T11:44:50.220Z,1.63
2022-08-10T11:47:20.757Z,1.40
2022-08-10T11:49:56.584Z,1.60
2022-08-10T11:52:32.202Z,1.60
2022-08-10T11:55:06.136Z,1.85
2022-08-10T11:57:54.294Z,2.10
2022-08-10T12:00:32.435Z,2.08
2022-08-10T12:03:07.009Z,1.85
2022-08-10T12:05:51.730Z,1.63
2022-08-10T12:10:02.910Z,1.70
2022-08-10T12:11:24.058Z,3.00
2022-08-10T12:16:53.907Z,1.83
2022-08-10T12:19:27.165Z,2.17
2022-08-10T12:22:05.936Z,3.03
2022-08-10T12:24:39.496Z,1.55
2022-08-10T12:27:13.320Z,1.60
2022-08-10T12:29:47.141Z,1.67
2022-08-10T12:32:25.492Z,1.38
2022-08-10T12:35:01.437Z,1.45
2022-08-10T12:37:36.467Z,1.63
2022-08-10T12:40:34.428Z,1.50
2022-08-10T12:44:05.744Z,1.70
2022-08-10T12:46:06.864Z,1.52
2022-08-10T12:48:40.406Z,1.60
2022-08-10T12:51:14.778Z,1.70
2022-08-10T12:53:51.285Z,1.75
2022-08-10T12:56:25.886Z,1.55
2022-08-10T12:58:57.627Z,1.40
2022-08-10T13:02:07.808Z,1.50
2022-08-10T13:04:31.944Z,1.80
2022-08-10T13:07:02.332Z,1.30
2022-08-10T13:09:32.113Z,1.63
2022-08-10T13:12:39.040Z,1.77
2022-08-10T13:14:58.891Z,1.38
2022-08-10T13:17:38.765Z,1.23
2022-08-10T13:20:19.297Z,1.60
2022-08-10T13:22:49.594Z,1.55
2022-08-10T13:25:21.345Z,1.60
2022-08-10T13:27:59.837Z,1.67
2022-08-10T13:30:37.867Z,1.80
2022-08-10T13:33:06.975Z,1.73
2022-08-10T13:35:37.990Z,1.58
2022-08-10T13:38:08.201Z,1.83
2022-08-10T13:40:37.538Z,1.40
2022-08-10T13:43:08.123Z,1.40
2022-08-10T13:45:46.345Z,2.03
2022-08-10T13:48:21.239Z,1.70
2022-08-10T13:50:53.483Z,2.20
2022-08-10T13:53:22.995Z,1.50
2022-08-10T13:55:56.733Z,1.63
2022-08-10T14:01:18.668Z,1.45
2022-08-10T14:03:48.680Z,1.58
2022-08-10T14:06:21.368Z,1.95
2022-08-10T14:09:01.495Z,1.50
2022-08-10T14:11:31.849Z,1.55
2022-08-10T14:14:02.988Z,1.25
2022-08-10T14:16:33.159Z,1.45
2022-08-10T14:19:06.748Z,1.20
2022-08-10T14:21:41.226Z,1.40
2022-08-10T14:24:21.425Z,1.30
2022-08-10T14:26:50.584Z,1.40
2022-08-10T14:29:22.550Z,1.25
2022-08-10T14:32:01.562Z,1.25
2022-08-10T14:36:16.226Z,1.48
2022-08-10T14:37:30.945Z,1.45
2022-08-10T14:40:06.054Z,2.20
2022-08-10T14:42:39.007Z,2.88
2022-08-10T14:45:14.696Z,5.10
2022-08-10T14:47:54.132Z,1.25
2022-08-10T14:50:33.660Z,1.50
2022-08-10T14:53:09.607Z,1.70
2022-08-10T14:55:58.683Z,1.50
2022-08-10T14:58:32.894Z,1.38
2022-08-10T15:01:02.462Z,1.73
2022-08-10T15:04:00.659Z,2.72
2022-08-10T15:06:35.371Z,1.40
2022-08-10T15:09:12.554Z,1.50
2022-08-10T15:12:14.170Z,1.40
2022-08-10T15:14:47.273Z,1.40
2022-08-10T15:17:26.416Z,1.30
2022-08-10T15:20:03.168Z,1.40
2022-08-10T15:22:38.595Z,1.45
2022-08-10T15:25:18.986Z,1.40
2022-08-10T15:27:55.715Z,1.27
2022-08-10T15:30:31.576Z,1.55
2022-08-10T15:34:01.881Z,1.50
2022-08-10T15:36:43.114Z,1.30
2022-08-10T15:40:25.211Z,1.30
2022-08-10T15:42:09.397Z,1.30
2022-08-10T15:44:41.677Z,1.50
2022-08-10T15:47:15.178Z,1.58
2022-08-10T15:49:53.390Z,1.55
2022-08-10T15:53:00.036Z,1.40
2022-08-10T15:55:44.291Z,1.58
2022-08-10T15:58:14.453Z,1.55
2022-08-10T16:00:56.386Z,1.70
2022-08-10T16:03:40.548Z,2.08
2022-08-10T16:06:10.797Z,1.73
2022-08-10T16:08:56.421Z,1.80
2022-08-10T16:11:41.796Z,1.90
2022-08-10T16:14:26.087Z,1.70
2022-08-10T16:16:56.515Z,2.05
2022-08-10T16:19:26.513Z,1.70
2022-08-10T16:21:58.227Z,1.95
2022-08-10T16:24:30.978Z,1.70
2022-08-10T16:27:01.775Z,1.67
2022-08-10T16:29:32.474Z,1.65
2022-08-10T16:32:22.453Z,1.90
2022-08-10T16:34:52.990Z,2.05
2022-08-10T16:37:21.929Z,1.95
2022-08-10T16:39:57.018Z,1.80
2022-08-10T16:42:30.132Z,2.20
2022-08-10T16:45:03.672Z,2.22
2022-08-10T16:47:37.915Z,2.00
2022-08-10T16:50:09.101Z,1.88
2022-08-10T16:52:37.974Z,2.20
2022-08-10T16:55:23.654Z,2.05
2022-08-10T16:57:56.920Z,2.20
2022-08-10T17:00:27.538Z,1.92
2022-08-10T17:02:59.420Z,1.70
2022-08-10T17:06:11.284Z,2.20
2022-08-10T17:08:21.475Z,2.10
2022-08-10T17:10:52.228Z,1.88
2022-08-10T17:13:23.569Z,2.10
2022-08-10T17:15:59.055Z,1.77
2022-08-10T17:18:29.840Z,2.10
2022-08-10T17:21:00.906Z,2.00
2022-08-10T17:23:32.450Z,2.00
2022-08-10T17:26:05.172Z,3.25
2022-08-10T17:28:39.981Z,2.63
2022-08-10T17:31:30.240Z,2.55
2022-08-10T17:34:13.096Z,3.30
2022-08-10T17:36:42.868Z,2.60
2022-08-10T17:39:14.030Z,2.10
2022-08-10T17:41:44.049Z,2.78
2022-08-10T17:44:13.434Z,2.10
2022-08-10T17:46:46.055Z,2.17
2022-08-10T17:49:17.504Z,1.90
2022-08-10T17:51:56.599Z,2.50
2022-08-10T17:54:31.299Z,2.10
2022-08-10T17:57:01.687Z,3.15
2022-08-10T17:59:33.556Z,2.40
2022-08-10T18:02:08.280Z,2.20
2022-08-10T18:04:41.222Z,2.20
2022-08-10T18:07:11.863Z,2.60
2022-08-10T18:09:43.425Z,2.63
2022-08-10T18:12:17.918Z,2.47
2022-08-10T18:14:49.273Z,3.10
2022-08-10T18:17:22.099Z,2.60
2022-08-10T18:19:54.512Z,2.80
2022-08-10T18:22:24.969Z,2.63
2022-08-10T18:24:55.050Z,2.92
2022-08-10T18:28:08.492Z,2.80
2022-08-10T18:30:17.882Z,3.15
2022-08-10T18:32:51.041Z,2.90
2022-08-10T18:35:20.017Z,2.78
2022-08-10T18:37:50.550Z,2.85
2022-08-10T18:40:20.114Z,2.80
2022-08-10T18:42:53.965Z,3.25
2022-08-10T18:45:25.443Z,3.78
2022-08-10T18:48:00.476Z,2.90
2022-08-10T18:50:33.212Z,2.80
2022-08-10T18:53:05.619Z,3.10
2022-08-10T18:55:39.721Z,3.13
2022-08-10T18:58:45.203Z,3.03
2022-08-10T19:01:30.502Z,2.85
2022-08-10T19:04:15.161Z,3.17
2022-08-10T19:07:09.106Z,2.78
2022-08-10T19:09:57.555Z,2.92
2022-08-10T19:12:57.793Z,2.83
2022-08-10T19:15:30.840Z,2.63
2022-08-10T19:18:17.479Z,2.90
2022-08-10T19:20:51.654Z,3.00
2022-08-10T19:23:37.204Z,3.10
2022-08-10T19:26:45.052Z,3.17
2022-08-10T19:30:12.153Z,3.20
2022-08-10T19:32:18.662Z,2.77
2022-08-10T19:34:57.935Z,2.80
2022-08-10T19:37:36.178Z,2.60
2022-08-10T19:40:18.852Z,2.77
2022-08-10T19:43:11.946Z,2.90
2022-08-10T19:46:02.333Z,2.70
2022-08-10T19:48:40.353Z,3.50
2022-08-10T19:51:15.706Z,2.70
2022-08-10T19:53:58.487Z,2.53
2022-08-10T19:56:34.888Z,2.30
2022-08-10T19:59:10.142Z,2.60
2022-08-10T20:01:55.106Z,2.73
2022-08-10T20:04:31.683Z,2.60
2022-08-10T20:07:10.293Z,2.63
2022-08-10T20:09:50.357Z,2.80
2022-08-10T20:12:35.075Z,3.00
2022-08-10T20:15:07.185Z,3.00
2022-08-10T20:17:52.106Z,2.60
2022-08-10T20:20:30.616Z,2.63
2022-08-10T20:23:09.051Z,2.67
2022-08-10T20:25:41.084Z,2.73
2022-08-10T20:28:18.369Z,2.50
2022-08-10T20:30:51.509Z,2.53
2022-08-10T20:33:28.163Z,6.33
2022-08-10T20:36:02.437Z,4.03
2022-08-10T20:38:35.112Z,4.90
2022-08-10T20:41:13.440Z,2.90
2022-08-10T20:43:50.880Z,3.20
2022-08-10T20:46:27.741Z,2.50
2022-08-10T20:49:00.883Z,2.80
2022-08-10T20:51:58.508Z,2.90
2022-08-10T20:54:32.781Z,3.00
2022-08-10T20:57:55.482Z,2.90
2022-08-10T21:00:09.945Z,2.70
2022-08-10T21:03:06.506Z,2.77
2022-08-10T21:05:52.900Z,2.60
2022-08-10T21:08:32.601Z,3.20
2022-08-10T21:11:09.654Z,2.80
2022-08-10T21:14:02.322Z,2.83
2022-08-10T21:16:43.044Z,3.07
2022-08-10T21:19:31.619Z,2.80
2022-08-10T21:22:12.904Z,2.93
2022-08-10T21:24:52.082Z,3.07
2022-08-10T21:27:49.067Z,2.83
2022-08-10T21:30:36.593Z,2.93
2022-08-10T21:33:09.184Z,3.00
2022-08-10T21:35:43.097Z,2.70
2022-08-10T21:38:19.545Z,3.00
2022-08-10T21:41:57.794Z,3.13
2022-08-10T21:44:52.763Z,3.00
2022-08-10T21:48:06.515Z,3.00
2022-08-10T21:51:00.334Z,2.97
2022-08-10T21:53:55.338Z,2.80
2022-08-10T21:56:46.307Z,3.00
2022-08-10T21:59:47.943Z,2.83
2022-08-10T22:02:40.850Z,3.10
2022-08-10T22:05:47.982Z,3.13
2022-08-10T22:08:37.462Z,3.33
2022-08-10T22:11:27.404Z,2.87
2022-08-10T22:14:14.978Z,2.70
2022-08-10T22:17:05.060Z,2.77
2022-08-10T22:19:55.995Z,2.73
2022-08-10T22:23:00.228Z,3.03
2022-08-10T22:26:00.463Z,2.93
2022-08-10T22:28:48.811Z,3.00
2022-08-10T22:31:48.310Z,2.43
2022-08-10T22:34:57.746Z,2.80
2022-08-10T22:37:55.808Z,2.70
2022-08-10T22:40:42.534Z,2.83
2022-08-10T22:43:37.583Z,2.90
2022-08-10T22:46:29.371Z,2.77
2022-08-10T22:49:02.056Z,2.93
2022-08-10T22:51:40.894Z,3.00
2022-08-10T22:54:38.125Z,3.10
2022-08-10T22:57:24.247Z,3.40
2022-08-10T22:59:52.725Z,3.00
2022-08-10T23:02:30.451Z,3.40
2022-08-10T23:05:04.736Z,3.27
2022-08-10T23:07:35.384Z,3.00
2022-08-10T23:10:10.197Z,3.03
2022-08-10T23:12:44.605Z,3.10
2022-08-10T23:15:37.039Z,2.77
2022-08-10T23:18:24.973Z,3.00
2022-08-10T23:20:55.495Z,3.47
2022-08-10T23:23:25.373Z,3.00
2022-08-10T23:25:58.332Z,2.97
2022-08-10T23:28:39.480Z,3.20
2022-08-10T23:31:17.713Z,2.90
2022-08-10T23:34:07.398Z,2.93
2022-08-10T23:36:38.324Z,3.50
2022-08-10T23:39:26.038Z,3.47
2022-08-10T23:42:04.593Z,3.37
2022-08-10T23:44:38.163Z,2.80
2022-08-10T23:47:07.934Z,3.30
2022-08-10T23:49:37.354Z,3.17
2022-08-10T23:52:11.847Z,3.27
2022-08-10T23:54:45.623Z,3.47
2022-08-10T23:57:19.499Z,3.50
2022-08-10T23:59:53.809Z,3.10
